Time;durP1;ratioP1;P1;durP2;ratioP2;P2;SDS_P1;SDS_P2;PMS_P1;PMS_P2;Temp;Humidity;BMP_temperature;BMP_pressure;BME280_temperature;BME280_humidity;BME280_pressure;Samples;Min_cycle;Max_cycle;Signal;HPM_P1;HPM_P2
2022/01/06 00:00:11;;;;;;;15.35;2.85;;;4.30;99.90;;;;;;5136368;27;20034;-68
2022/01/06 00:02:37;;;;;;;18.35;3.47;;;4.30;99.90;;;;;;5136477;27;20053;-68
2022/01/06 00:05:04;;;;;;;22.48;3.60;;;4.30;99.90;;;;;;5120808;27;20035;-69
2022/01/06 00:07:31;;;;;;;15.10;3.47;;;4.30;99.90;;;;;;5115936;27;20031;-69
2022/01/06 00:09:56;;;;;;;19.00;3.20;;;4.30;99.90;;;;;;5115454;28;20046;-68
2022/01/06 00:12:28;;;;;;;17.65;3.85;;;4.20;99.90;;;;;;5116117;28;20039;-68
2022/01/06 00:18:10;;;;;;;18.73;3.65;;;4.10;99.90;;;;;;5014510;28;20568;-68
2022/01/06 00:23:38;;;;;;;;;;;3.90;99.90;;;;;;5095864;28;20036;-68
2022/01/06 00:26:06;;;;;;;20.67;3.38;;;3.90;99.90;;;;;;5105233;28;19923;-68
2022/01/06 00:28:32;;;;;;;18.08;2.90;;;3.80;99.90;;;;;;5115818;28;20039;-69
2022/01/06 00:30:58;;;;;;;16.15;3.20;;;3.80;99.90;;;;;;5133714;28;20043;-68
2022/01/06 00:33:27;;;;;;;15.57;3.38;;;3.80;99.90;;;;;;5114029;28;20043;-67
2022/01/06 00:35:53;;;;;;;22.48;3.35;;;3.80;99.90;;;;;;5115345;28;20074;-67
2022/01/06 00:38:19;;;;;;;19.23;2.88;;;3.80;99.90;;;;;;5115820;28;20160;-67
2022/01/06 00:40:44;;;;;;;16.58;3.10;;;3.80;99.90;;;;;;5115318;28;20126;-68
2022/01/06 00:43:11;;;;;;;19.88;3.00;;;3.90;99.90;;;;;;5118871;27;20068;-68
2022/01/06 00:45:37;;;;;;;15.88;3.28;;;3.90;99.90;;;;;;5119235;27;20054;-67
2022/01/06 00:48:06;;;;;;;16.95;3.88;;;3.90;99.90;;;;;;5119711;27;20462;-68
2022/01/06 00:50:32;;;;;;;17.15;3.35;;;3.80;99.90;;;;;;5102123;27;20451;-69
2022/01/06 00:53:00;;;;;;;14.45;2.95;;;3.80;99.90;;;;;;5119947;27;20083;-67
2022/01/06 00:55:25;;;;;;;15.90;3.03;;;3.70;99.90;;;;;;5100996;28;20059;-68
2022/01/06 00:57:55;;;;;;;17.40;3.35;;;3.80;99.90;;;;;;5082317;28;20043;-68
2022/01/06 01:00:22;;;;;;;16.48;3.83;;;3.80;99.90;;;;;;5098632;28;20054;-68
2022/01/06 01:02:49;;;;;;;14.00;2.70;;;3.80;99.90;;;;;;5116601;28;20044;-68
2022/01/06 01:05:14;;;;;;;26.20;3.50;;;3.70;99.90;;;;;;5115254;27;20114;-68
2022/01/06 01:07:40;;;;;;;15.93;3.10;;;3.70;99.90;;;;;;5119365;27;20114;-69
2022/01/06 01:10:06;;;;;;;17.95;3.08;;;3.70;99.90;;;;;;5119064;27;20138;-68
2022/01/06 01:12:32;;;;;;;16.42;3.22;;;3.70;99.90;;;;;;5119206;27;20454;-68
2022/01/06 01:15:06;;;;;;;17.70;3.17;;;3.60;99.90;;;;;;5104724;28;20062;-68
2022/01/06 01:17:33;;;;;;;16.02;3.45;;;3.60;99.90;;;;;;5098535;28;20057;-69
2022/01/06 01:19:59;;;;;;;18.38;3.20;;;3.50;99.90;;;;;;5098275;28;20097;-68
2022/01/06 01:22:25;;;;;;;17.42;3.42;;;3.50;99.90;;;;;;5098361;28;20036;-68
2022/01/06 01:24:50;;;;;;;14.02;2.85;;;3.40;99.90;;;;;;5111636;27;20475;-68
2022/01/06 01:27:20;;;;;;;12.60;2.65;;;3.30;99.90;;;;;;5113014;27;20081;-68
2022/01/06 01:30:03;;;;;;;17.20;2.83;;;3.30;99.90;;;;;;5118685;27;20047;-68
2022/01/06 01:32:35;;;;;;;17.90;3.40;;;3.20;99.90;;;;;;5118610;27;20444;-69
2022/01/06 01:35:02;;;;;;;15.32;3.30;;;3.20;99.90;;;;;;5123505;27;20043;-68
2022/01/06 01:37:29;;;;;;;13.48;2.75;;;3.10;99.90;;;;;;5118781;27;20212;-69
2022/01/06 01:39:55;;;;;;;22.20;3.33;;;3.10;99.90;;;;;;5118357;27;20563;-69
2022/01/06 01:42:21;;;;;;;18.85;2.80;;;3.10;99.90;;;;;;5118489;27;20075;-68
2022/01/06 01:44:49;;;;;;;15.73;3.30;;;3.20;99.90;;;;;;5136363;27;20071;-68
2022/01/06 01:47:16;;;;;;;16.50;2.85;;;3.20;99.90;;;;;;5118297;27;20085;-69
2022/01/06 01:49:55;;;;;;;14.52;3.03;;;3.20;99.90;;;;;;5101209;27;20039;-69
2022/01/06 01:52:21;;;;;;;15.98;2.72;;;3.10;99.90;;;;;;5118487;27;20459;-69
2022/01/06 01:54:46;;;;;;;15.60;2.90;;;3.20;99.90;;;;;;5116690;27;20039;-69
2022/01/06 01:57:12;;;;;;;18.75;2.97;;;3.20;99.90;;;;;;5118729;27;20043;-68
2022/01/06 01:59:38;;;;;;;14.82;2.90;;;3.20;99.90;;;;;;5118030;27;20039;-69
2022/01/06 02:02:04;;;;;;;15.05;2.97;;;3.20;99.90;;;;;;5118013;27;20111;-69
2022/01/06 02:04:29;;;;;;;12.30;2.25;;;3.10;99.90;;;;;;5101131;27;20061;-69
2022/01/06 02:06:55;;;;;;;18.65;2.70;;;3.10;99.90;;;;;;5101299;27;20042;-69
2022/01/06 02:09:20;;;;;;;18.77;2.80;;;3.10;99.90;;;;;;5100808;27;20051;-69
2022/01/06 02:11:46;;;;;;;10.38;2.05;;;3.00;99.90;;;;;;5118204;27;20042;-68
2022/01/06 02:14:12;;;;;;;15.88;2.25;;;3.10;99.90;;;;;;5117198;27;20066;-69
2022/01/06 02:16:38;;;;;;;16.77;2.45;;;3.00;99.90;;;;;;5117728;27;20180;-69
2022/01/06 02:19:04;;;;;;;14.80;2.22;;;3.00;99.90;;;;;;5117628;27;20121;-69
2022/01/06 02:21:29;;;;;;;19.83;3.03;;;2.90;99.90;;;;;;5117897;27;20035;-69
2022/01/06 02:23:55;;;;;;;17.27;2.40;;;2.90;99.90;;;;;;5117124;27;20043;-69
2022/01/06 02:26:22;;;;;;;18.50;2.20;;;2.90;99.90;;;;;;5100185;27;20039;-68
2022/01/06 02:28:48;;;;;;;11.00;2.42;;;2.90;99.90;;;;;;5117317;27;20078;-68
2022/01/06 02:31:13;;;;;;;13.23;2.30;;;2.80;99.90;;;;;;5117738;27;20154;-68
2022/01/06 02:33:39;;;;;;;14.70;3.30;;;2.80;99.90;;;;;;5100038;27;20471;-68
2022/01/06 02:36:05;;;;;;;19.23;2.58;;;2.80;99.90;;;;;;5117736;27;20043;-68
2022/01/06 02:38:31;;;;;;;13.35;2.25;;;2.80;99.90;;;;;;5117063;27;20122;-68
2022/01/06 02:40:57;;;;;;;16.88;2.90;;;2.80;99.90;;;;;;5117613;27;20134;-68
2022/01/06 02:43:24;;;;;;;16.23;2.35;;;2.80;99.90;;;;;;5116787;27;20035;-68
2022/01/06 02:45:50;;;;;;;13.55;2.25;;;2.80;99.90;;;;;;5096478;28;20115;-68
2022/01/06 02:48:16;;;;;;;15.45;2.70;;;2.80;99.90;;;;;;5096746;28;20183;-68
2022/01/06 02:50:47;;;;;;;15.07;2.63;;;2.80;99.90;;;;;;5096528;28;20098;-68
2022/01/06 02:53:14;;;;;;;12.55;2.75;;;2.80;99.90;;;;;;5097052;28;20092;-68
2022/01/06 02:55:47;;;;;;;17.77;2.75;;;2.80;99.90;;;;;;5116194;27;20047;-68
2022/01/06 02:58:13;;;;;;;18.33;2.90;;;2.80;99.90;;;;;;5117236;27;20165;-68
2022/01/06 03:00:39;;;;;;;13.90;2.05;;;2.80;99.90;;;;;;5116203;27;20375;-68
2022/01/06 03:03:04;;;;;;;13.77;2.85;;;2.70;99.90;;;;;;5116704;27;20039;-68
2022/01/06 03:05:30;;;;;;;13.15;2.95;;;2.70;99.90;;;;;;5114342;28;20043;-68
2022/01/06 03:07:56;;;;;;;25.15;3.15;;;2.70;99.90;;;;;;5116926;27;20115;-69
2022/01/06 03:10:22;;;;;;;22.52;3.63;;;2.70;99.90;;;;;;5116648;27;20047;-68
2022/01/06 03:12:48;;;;;;;21.10;3.08;;;2.70;99.90;;;;;;5116876;27;20107;-68
2022/01/06 03:15:16;;;;;;;16.15;3.00;;;2.70;99.90;;;;;;5116292;27;20051;-69
2022/01/06 03:17:45;;;;;;;19.17;3.80;;;2.70;99.90;;;;;;5116796;27;20089;-68
2022/01/06 03:20:13;;;;;;;17.17;3.30;;;2.70;99.90;;;;;;5134544;27;20031;-68
2022/01/06 03:22:38;;;;;;;21.17;2.97;;;2.60;99.90;;;;;;5116472;27;20434;-68
2022/01/06 03:25:06;;;;;;;19.45;3.75;;;2.60;99.90;;;;;;5114135;27;20114;-68
2022/01/06 03:27:32;;;;;;;18.83;3.28;;;2.60;99.90;;;;;;5096320;28;20082;-69
2022/01/06 03:29:57;;;;;;;16.30;3.22;;;2.60;99.90;;;;;;5095936;28;20043;-68
2022/01/06 03:32:23;;;;;;;24.00;3.22;;;2.60;99.90;;;;;;5095912;28;20040;-68
2022/01/06 03:34:49;;;;;;;15.98;2.70;;;2.50;99.90;;;;;;5089369;27;20050;-68
2022/01/06 03:37:15;;;;;;;17.90;3.25;;;2.60;99.90;;;;;;5116807;27;20046;-69
2022/01/06 03:39:42;;;;;;;25.10;3.67;;;2.50;99.90;;;;;;5116323;27;20035;-68
2022/01/06 03:42:09;;;;;;;14.20;3.50;;;2.60;99.90;;;;;;5116321;27;20031;-69
2022/01/06 03:44:34;;;;;;;19.27;3.60;;;2.50;99.90;;;;;;5082244;27;20046;-69
2022/01/06 03:47:00;;;;;;;22.38;3.28;;;2.50;99.90;;;;;;5108039;27;20031;-67
2022/01/06 03:49:26;;;;;;;18.17;3.53;;;2.50;99.90;;;;;;5116136;27;20356;-68
2022/01/06 03:51:52;;;;;;;18.95;3.03;;;2.40;99.90;;;;;;5099291;27;20038;-68
2022/01/06 03:54:18;;;;;;;23.02;3.88;;;2.40;99.90;;;;;;5115770;27;20045;-69
2022/01/06 03:56:47;;;;;;;22.05;3.50;;;2.40;99.90;;;;;;5116384;27;20085;-68
2022/01/06 03:59:12;;;;;;;22.45;3.78;;;2.30;99.90;;;;;;5115606;27;20046;-68
2022/01/06 04:01:38;;;;;;;20.83;3.30;;;2.30;99.90;;;;;;5115989;27;20034;-68
2022/01/06 04:04:04;;;;;;;21.83;3.92;;;2.30;99.90;;;;;;5114815;27;20075;-68
2022/01/06 04:06:30;;;;;;;20.95;4.22;;;2.30;99.90;;;;;;5115897;27;20050;-68
2022/01/06 04:08:55;;;;;;;20.25;3.17;;;2.20;99.90;;;;;;5115800;27;20686;-68
2022/01/06 04:11:21;;;;;;;19.02;3.83;;;2.20;99.90;;;;;;5115789;27;20035;-68
2022/01/06 04:13:46;;;;;;;23.13;3.70;;;2.20;99.90;;;;;;5112957;28;20066;-68
2022/01/06 04:16:15;;;;;;;24.13;4.25;;;2.20;99.90;;;;;;5095460;28;20207;-68
2022/01/06 04:18:40;;;;;;;25.50;3.58;;;2.10;99.90;;;;;;5094705;28;20079;-68
2022/01/06 04:21:07;;;;;;;17.25;3.60;;;2.10;99.90;;;;;;5078641;28;20086;-68
2022/01/06 04:23:33;;;;;;;18.95;3.25;;;2.10;99.90;;;;;;5095982;28;20039;-68
2022/01/06 04:25:59;;;;;;;18.00;3.40;;;2.10;99.90;;;;;;5107150;28;20321;-68
2022/01/06 04:28:25;;;;;;;20.10;3.55;;;2.10;99.90;;;;;;5095027;28;20101;-68
2022/01/06 04:30:51;;;;;;;25.00;3.45;;;2.00;99.90;;;;;;5095370;28;20097;-69
2022/01/06 04:33:16;;;;;;;20.05;3.50;;;2.10;99.90;;;;;;5095596;28;20102;-69
2022/01/06 04:35:42;;;;;;;16.70;3.50;;;2.00;99.90;;;;;;5095548;28;20425;-68
2022/01/06 04:38:08;;;;;;;17.85;3.35;;;2.00;99.90;;;;;;5095004;28;20044;-69
2022/01/06 04:40:33;;;;;;;25.67;4.50;;;2.00;99.90;;;;;;5077734;28;20036;-69
2022/01/06 04:42:59;;;;;;;15.38;3.00;;;2.00;99.90;;;;;;5095246;28;20513;-68
2022/01/06 04:45:25;;;;;;;21.45;3.45;;;2.10;99.90;;;;;;5111137;28;20027;-68
2022/01/06 04:47:50;;;;;;;27.80;4.32;;;2.00;99.90;;;;;;5115559;28;20436;-68
2022/01/06 04:50:16;;;;;;;19.05;3.33;;;2.00;99.90;;;;;;5115115;28;20096;-68
2022/01/06 04:52:42;;;;;;;17.30;3.70;;;2.00;99.90;;;;;;5115467;28;20103;-68
2022/01/06 04:55:08;;;;;;;19.58;3.10;;;2.00;99.90;;;;;;5114871;28;20051;-68
2022/01/06 04:57:33;;;;;;;24.90;3.38;;;2.00;99.90;;;;;;5115447;28;20043;-69
2022/01/06 04:59:59;;;;;;;16.75;3.47;;;2.00;99.90;;;;;;5115251;28;20134;-68
2022/01/06 05:02:25;;;;;;;19.15;3.22;;;2.00;99.90;;;;;;5098295;28;20160;-68
2022/01/06 05:04:50;;;;;;;17.73;3.15;;;2.00;99.90;;;;;;5103843;28;20054;-68
2022/01/06 05:07:16;;;;;;;15.20;2.90;;;1.90;99.90;;;;;;5094926;28;20062;-68
2022/01/06 05:09:42;;;;;;;14.90;3.47;;;1.90;99.90;;;;;;5113074;28;20044;-68
2022/01/06 05:12:07;;;;;;;18.10;3.15;;;1.90;99.90;;;;;;5095375;28;20139;-68
2022/01/06 05:14:33;;;;;;;17.33;3.15;;;1.90;99.90;;;;;;5102893;28;20378;-68
2022/01/06 05:17:00;;;;;;;18.00;2.90;;;1.90;99.90;;;;;;5115127;28;20043;-68
2022/01/06 05:19:26;;;;;;;18.95;3.63;;;1.90;99.90;;;;;;5114601;28;20039;-68
2022/01/06 05:21:52;;;;;;;18.38;2.88;;;1.90;99.90;;;;;;5115188;28;20063;-68
2022/01/06 05:24:19;;;;;;;18.05;4.10;;;1.80;99.90;;;;;;5108689;28;20047;-68
2022/01/06 05:26:45;;;;;;;19.90;2.83;;;1.80;99.90;;;;;;5110022;28;20359;-68
2022/01/06 05:29:12;;;;;;;17.05;2.92;;;1.80;99.90;;;;;;5115716;27;20100;-68
2022/01/06 05:31:38;;;;;;;21.52;3.33;;;1.80;99.90;;;;;;5101961;27;20027;-68
2022/01/06 05:34:05;;;;;;;13.40;2.75;;;1.80;99.90;;;;;;5117999;27;20418;-69
2022/01/06 05:36:31;;;;;;;21.02;3.15;;;1.80;99.90;;;;;;5118688;27;20456;-68
2022/01/06 05:38:57;;;;;;;18.48;2.85;;;1.90;99.90;;;;;;5118331;27;20038;-69
2022/01/06 05:41:23;;;;;;;19.40;3.35;;;1.80;99.90;;;;;;5118663;27;20199;-69
2022/01/06 05:43:49;;;;;;;17.38;2.78;;;1.80;99.90;;;;;;5118519;27;20050;-69
2022/01/06 05:46:16;;;;;;;19.13;3.30;;;1.70;99.90;;;;;;5118518;27;20114;-68
2022/01/06 05:48:42;;;;;;;20.27;3.60;;;1.70;99.90;;;;;;5107977;28;20368;-68
2022/01/06 05:51:08;;;;;;;11.43;2.78;;;1.80;99.90;;;;;;5097380;28;20031;-69
2022/01/06 05:53:33;;;;;;;15.57;2.70;;;1.70;99.90;;;;;;5097710;27;20078;-67
2022/01/06 05:55:59;;;;;;;14.95;2.90;;;1.70;99.90;;;;;;5113742;28;20471;-70
2022/01/06 05:58:25;;;;;;;11.55;2.47;;;1.70;99.90;;;;;;5100449;28;20049;-68
2022/01/06 06:00:50;;;;;;;16.63;2.67;;;1.70;99.90;;;;;;5080538;27;20035;-68
2022/01/06 06:03:16;;;;;;;13.20;2.47;;;1.70;99.90;;;;;;5100408;27;20031;-68
2022/01/06 06:05:42;;;;;;;16.17;2.58;;;1.70;99.90;;;;;;5099444;28;20474;-69
2022/01/06 06:08:11;;;;;;;17.35;2.97;;;1.80;99.90;;;;;;5100517;28;20054;-68
2022/01/06 06:10:37;;;;;;;14.55;2.58;;;1.80;99.90;;;;;;5098510;28;20039;-70
2022/01/06 06:13:03;;;;;;;18.98;2.97;;;1.80;99.90;;;;;;5114093;28;20398;-69
2022/01/06 06:15:34;;;;;;;13.52;2.55;;;1.70;99.90;;;;;;5112624;27;20059;-69
2022/01/06 06:18:07;;;;;;;16.05;3.00;;;1.70;99.90;;;;;;5117898;27;20459;-70
2022/01/06 06:20:33;;;;;;;18.90;3.00;;;1.70;99.90;;;;;;5117461;27;20035;-68
2022/01/06 06:22:59;;;;;;;21.45;3.05;;;1.80;99.90;;;;;;5118171;27;20092;-69
2022/01/06 06:25:25;;;;;;;22.33;3.28;;;1.80;99.90;;;;;;5115775;27;20035;-70
2022/01/06 06:27:51;;;;;;;14.77;2.72;;;1.80;99.90;;;;;;5117620;27;20035;-70
2022/01/06 06:30:17;;;;;;;19.02;3.30;;;1.80;99.90;;;;;;5135448;27;20035;-68
2022/01/06 06:32:44;;;;;;;17.75;3.72;;;1.70;99.90;;;;;;5117571;27;20054;-63
2022/01/06 06:35:10;;;;;;;13.27;3.28;;;1.70;99.90;;;;;;5122644;27;20039;-69
2022/01/06 06:37:35;;;;;;;11.00;2.85;;;1.70;99.90;;;;;;5097075;28;20099;-69
2022/01/06 06:40:01;;;;;;;19.35;3.60;;;1.70;99.90;;;;;;5096621;28;20032;-69
2022/01/06 06:42:28;;;;;;;21.10;4.00;;;1.70;99.90;;;;;;5096914;28;20892;-68
2022/01/06 06:44:54;;;;;;;13.43;3.55;;;1.70;99.90;;;;;;5088809;27;20348;-69
2022/01/06 06:47:20;;;;;;;20.55;3.75;;;1.80;99.90;;;;;;5116891;27;20046;-69
2022/01/06 06:49:45;;;;;;;23.00;3.72;;;1.80;99.90;;;;;;5116296;27;20035;-70
2022/01/06 06:52:11;;;;;;;17.15;3.40;;;1.80;99.90;;;;;;5116892;27;20093;-69
2022/01/06 06:54:37;;;;;;;18.08;3.40;;;1.70;99.90;;;;;;5116427;27;20061;-69
2022/01/06 06:57:03;;;;;;;15.32;3.13;;;1.70;99.90;;;;;;5117626;27;20048;-70
2022/01/06 06:59:29;;;;;;;15.13;3.33;;;1.70;99.90;;;;;;5116333;27;20542;-70
2022/01/06 07:01:55;;;;;;;14.95;3.10;;;1.60;99.90;;;;;;5116802;27;20122;-68
2022/01/06 07:04:21;;;;;;;21.38;3.58;;;1.60;99.90;;;;;;5116396;27;20027;-68
2022/01/06 07:06:46;;;;;;;21.30;3.55;;;1.60;99.90;;;;;;5107752;27;20348;-68
2022/01/06 07:09:12;;;;;;;18.75;3.17;;;1.60;99.90;;;;;;5116713;27;20035;-69
2022/01/06 07:11:38;;;;;;;22.48;3.55;;;1.60;99.90;;;;;;5115681;27;20031;-68
2022/01/06 07:14:04;;;;;;;17.40;3.97;;;1.60;99.90;;;;;;5131021;27;20105;-69
2022/01/06 07:16:29;;;;;;;24.23;4.35;;;1.70;99.90;;;;;;5096341;28;20054;-70
2022/01/06 07:18:55;;;;;;;23.40;5.13;;;1.70;99.90;;;;;;5096238;28;20036;-69
2022/01/06 07:21:21;;;;;;;20.90;3.78;;;1.70;99.90;;;;;;5095835;28;20381;-69
2022/01/06 07:23:46;;;;;;;15.60;3.55;;;1.70;99.90;;;;;;5080707;27;20050;-69
2022/01/06 07:26:12;;;;;;;17.55;3.65;;;1.70;99.90;;;;;;5116591;27;20031;-68
2022/01/06 07:28:38;;;;;;;17.23;3.55;;;1.60;99.90;;;;;;5100133;27;20031;-68
2022/01/06 07:31:04;;;;;;;19.38;4.03;;;1.60;99.90;;;;;;5100445;27;20100;-68
2022/01/06 07:33:31;;;;;;;15.00;3.17;;;1.60;99.90;;;;;;5094391;27;20042;-69
2022/01/06 07:35:57;;;;;;;16.92;4.25;;;1.60;99.90;;;;;;5116253;27;20051;-69
2022/01/06 07:38:26;;;;;;;20.33;3.78;;;1.60;99.90;;;;;;5084316;28;20143;-69
2022/01/06 07:40:51;;;;;;;23.17;4.93;;;1.70;99.90;;;;;;5112223;27;20386;-69
2022/01/06 07:43:17;;;;;;;19.00;4.65;;;1.70;99.90;;;;;;5135997;27;20050;-69
2022/01/06 07:45:42;;;;;;;23.73;4.32;;;1.70;99.90;;;;;;5117424;27;20036;-69
2022/01/06 07:48:20;;;;;;;21.60;5.55;;;1.80;99.90;;;;;;5079196;28;20040;-69
2022/01/06 07:50:46;;;;;;;19.10;4.50;;;1.90;99.90;;;;;;5107645;27;20434;-70
2022/01/06 07:53:12;;;;;;;21.17;4.60;;;2.00;99.90;;;;;;5115965;27;20371;-68
2022/01/06 07:55:39;;;;;;;19.58;4.80;;;2.00;99.90;;;;;;5099985;28;20341;-69
2022/01/06 07:58:05;;;;;;;21.08;4.65;;;2.00;99.90;;;;;;5095725;28;20047;-69
2022/01/06 08:00:31;;;;;;;19.15;3.53;;;2.00;99.90;;;;;;5095603;28;20122;-69
2022/01/06 08:02:57;;;;;;;20.80;4.55;;;1.90;99.90;;;;;;5096019;28;20123;-69
2022/01/06 08:05:26;;;;;;;21.23;4.03;;;1.90;99.90;;;;;;5110191;27;20118;-69
2022/01/06 08:07:52;;;;;;;15.75;3.72;;;1.90;99.90;;;;;;5099472;27;20039;-68
2022/01/06 08:10:18;;;;;;;21.45;4.60;;;1.90;99.90;;;;;;5116579;28;20130;-70
2022/01/06 08:12:44;;;;;;;23.35;4.47;;;1.80;99.90;;;;;;5116465;27;20038;-69
2022/01/06 08:15:10;;;;;;;18.90;3.90;;;1.80;99.90;;;;;;5087980;28;20326;-69
2022/01/06 08:17:37;;;;;;;16.05;3.33;;;1.70;99.90;;;;;;5114138;28;20101;-70
2022/01/06 08:20:07;;;;;;;17.20;3.75;;;1.70;99.90;;;;;;5114617;28;20044;-70
2022/01/06 08:22:33;;;;;;;16.17;3.30;;;1.70;99.90;;;;;;5112991;28;20035;-70
2022/01/06 08:24:58;;;;;;;20.55;4.40;;;1.70;99.90;;;;;;5115874;28;20373;-68
2022/01/06 08:27:25;;;;;;;18.23;3.88;;;1.70;99.90;;;;;;5116216;28;20027;-68
2022/01/06 08:29:52;;;;;;;20.67;4.57;;;1.70;99.90;;;;;;5098740;28;20410;-69
2022/01/06 08:32:18;;;;;;;24.13;6.50;;;1.80;99.90;;;;;;5098665;28;20039;-69
2022/01/06 08:34:45;;;;;;;20.45;5.82;;;1.90;99.90;;;;;;5112285;28;20046;-70
2022/01/06 08:37:11;;;;;;;19.48;4.80;;;1.90;99.90;;;;;;5099007;28;20498;-69
2022/01/06 08:39:37;;;;;;;15.93;4.75;;;1.90;99.90;;;;;;5098102;28;20048;-67
2022/01/06 08:42:04;;;;;;;19.35;4.95;;;1.90;99.90;;;;;;5115627;28;20074;-68
2022/01/06 08:44:29;;;;;;;14.60;4.40;;;1.90;99.90;;;;;;5114668;28;20084;-69
2022/01/06 08:47:00;;;;;;;21.15;4.47;;;1.90;99.90;;;;;;5115624;28;20039;-69
2022/01/06 08:49:29;;;;;;;18.33;3.60;;;1.90;99.90;;;;;;5098347;28;20085;-70
2022/01/06 08:51:55;;;;;;;22.23;7.32;;;2.00;99.90;;;;;;5116032;28;20036;-68
2022/01/06 08:54:21;;;;;;;19.50;4.82;;;2.10;99.90;;;;;;5115202;28;20046;-69
2022/01/06 08:56:46;;;;;;;19.63;4.32;;;2.10;99.90;;;;;;5115844;28;20035;-70
2022/01/06 08:59:12;;;;;;;16.30;3.70;;;2.20;99.90;;;;;;5098822;28;20043;-69
2022/01/06 09:01:38;;;;;;;15.90;3.15;;;2.20;99.90;;;;;;5114846;28;20035;-68
2022/01/06 09:04:04;;;;;;;13.63;3.10;;;2.30;99.90;;;;;;5113157;27;20459;-70
2022/01/06 09:06:29;;;;;;;11.30;3.13;;;2.30;99.90;;;;;;5115200;27;20337;-70
2022/01/06 09:08:55;;;;;;;17.17;3.53;;;2.30;99.90;;;;;;5085337;28;20496;-69
2022/01/06 09:11:21;;;;;;;20.17;3.13;;;2.40;99.90;;;;;;5103969;27;20043;-69
2022/01/06 09:13:47;;;;;;;16.65;4.13;;;2.40;99.90;;;;;;5101220;27;20070;-69
2022/01/06 09:16:13;;;;;;;15.25;3.85;;;2.40;99.90;;;;;;5098844;28;20047;-70
2022/01/06 09:18:39;;;;;;;17.27;3.22;;;2.40;99.90;;;;;;5098119;28;20099;-69
2022/01/06 09:21:06;;;;;;;21.42;3.83;;;2.50;99.90;;;;;;5081480;28;20044;-69
2022/01/06 09:23:32;;;;;;;14.75;4.00;;;2.70;99.90;;;;;;5106374;27;20118;-70
2022/01/06 09:25:58;;;;;;;23.52;3.65;;;2.60;99.90;;;;;;5101308;27;20134;-69
2022/01/06 09:28:23;;;;;;;19.40;3.88;;;2.70;99.90;;;;;;5101648;27;20051;-70
2022/01/06 09:30:51;;;;;;;15.57;3.83;;;2.80;99.90;;;;;;5118745;27;20031;-69
2022/01/06 09:33:18;;;;;;;15.32;3.30;;;2.90;99.90;;;;;;5102205;27;20359;-69
2022/01/06 09:35:45;;;;;;;16.13;3.70;;;3.00;99.90;;;;;;5076340;28;20039;-68
2022/01/06 09:38:11;;;;;;;17.88;3.75;;;3.00;99.90;;;;;;5081299;28;20463;-68
2022/01/06 09:40:40;;;;;;;12.18;3.35;;;3.10;99.90;;;;;;5098370;28;20043;-68
2022/01/06 09:43:05;;;;;;;13.45;4.03;;;3.20;99.90;;;;;;5098514;28;20109;-68
2022/01/06 09:45:32;;;;;;;18.00;4.45;;;3.20;99.90;;;;;;5112987;27;20470;-68
2022/01/06 09:47:58;;;;;;;13.15;3.10;;;3.30;99.90;;;;;;5101718;27;20046;-68
2022/01/06 09:50:24;;;;;;;13.15;3.88;;;3.30;99.90;;;;;;5118923;27;20122;-68
2022/01/06 09:52:51;;;;;;;17.63;3.55;;;3.40;99.90;;;;;;5118879;27;20482;-69
2022/01/06 09:55:17;;;;;;;16.80;3.22;;;3.50;99.90;;;;;;5100364;27;20130;-68
2022/01/06 09:57:57;;;;;;;14.93;4.22;;;3.50;99.90;;;;;;5118219;27;20035;-69
2022/01/06 10:00:24;;;;;;;16.05;3.60;;;3.60;99.90;;;;;;5117381;27;20043;-68
2022/01/06 10:02:59;;;;;;;17.58;3.78;;;3.60;99.90;;;;;;5101823;27;20039;-68
2022/01/06 10:05:26;;;;;;;18.27;4.32;;;3.60;99.90;;;;;;5117317;27;20035;-68
2022/01/06 10:07:53;;;;;;;22.50;4.35;;;3.60;99.90;;;;;;5117278;27;20108;-68
2022/01/06 10:10:27;;;;;;;18.08;3.35;;;3.70;99.90;;;;;;5117657;27;20047;-68
2022/01/06 10:12:58;;;;;;;17.55;3.30;;;3.70;99.90;;;;;;5118482;27;20054;-68
2022/01/06 10:15:26;;;;;;;18.15;4.13;;;3.70;99.90;;;;;;5112995;28;20055;-68
2022/01/06 10:17:53;;;;;;;17.65;4.00;;;3.70;99.90;;;;;;5119231;27;20130;-69
2022/01/06 10:20:21;;;;;;;14.85;4.50;;;3.80;99.90;;;;;;5125005;27;20047;-68
2022/01/06 10:22:56;;;;;;;17.15;4.70;;;3.80;99.90;;;;;;5119278;27;20035;-68
2022/01/06 10:25:24;;;;;;;16.30;5.07;;;3.90;99.90;;;;;;5122397;27;20474;-69
2022/01/06 10:27:52;;;;;;;23.95;6.55;;;3.80;99.90;;;;;;5121114;27;20035;-68
2022/01/06 10:30:18;;;;;;;21.20;6.50;;;3.80;99.90;;;;;;5121607;27;20042;-68
2022/01/06 10:32:44;;;;;;;23.98;6.95;;;3.90;99.90;;;;;;5138275;27;20042;-69
2022/01/06 10:35:17;;;;;;;20.20;5.85;;;3.90;99.90;;;;;;5107266;27;20465;-68
2022/01/06 10:37:45;;;;;;;20.30;4.90;;;3.90;99.90;;;;;;5118101;27;20043;-68
2022/01/06 10:40:16;;;;;;;17.58;4.50;;;4.00;99.90;;;;;;5117864;27;20034;-69
2022/01/06 10:42:46;;;;;;;16.02;4.65;;;4.10;99.90;;;;;;5118014;27;20030;-70
2022/01/06 10:45:18;;;;;;;22.02;4.68;;;4.10;99.90;;;;;;5101052;27;20042;-69
2022/01/06 10:47:46;;;;;;;17.63;4.03;;;4.20;99.90;;;;;;5117636;27;20035;-69
2022/01/06 10:50:18;;;;;;;14.05;3.83;;;4.30;99.90;;;;;;5118029;27;20141;-69
2022/01/06 10:52:48;;;;;;;14.10;3.90;;;4.30;99.90;;;;;;5117821;27;20035;-68
2022/01/06 10:55:19;;;;;;;15.77;4.45;;;4.40;99.90;;;;;;5129348;27;20042;-69
2022/01/06 10:58:01;;;;;;;14.50;3.65;;;4.50;99.90;;;;;;5120398;27;20447;-68
2022/01/06 11:00:34;;;;;;;15.07;3.22;;;4.50;99.90;;;;;;5117803;27;20045;-68
2022/01/06 11:03:28;;;;;;;15.32;3.08;;;4.60;99.90;;;;;;5120610;27;20046;-68
2022/01/06 11:05:56;;;;;;;12.30;3.08;;;4.60;99.90;;;;;;5137107;27;20043;-68
2022/01/06 11:08:26;;;;;;;17.20;3.80;;;4.70;99.90;;;;;;5137819;27;20041;-68
2022/01/06 11:11:14;;;;;;;12.15;3.58;;;4.70;99.90;;;;;;5137934;27;20047;-69
2022/01/06 11:13:44;;;;;;;13.10;3.35;;;4.80;99.90;;;;;;5136358;27;20034;-68
2022/01/06 11:16:16;;;;;;;12.32;3.17;;;4.80;99.90;;;;;;5120611;27;20054;-68
2022/01/06 11:18:59;;;;;;;10.43;3.08;;;4.90;99.90;;;;;;5154098;27;20105;-68
2022/01/06 11:21:33;;;;;;;13.88;3.17;;;4.90;99.90;;;;;;5117964;27;20047;-68
2022/01/06 11:24:02;;;;;;;;;;;5.00;99.90;;;;;;5116811;27;20074;-68
2022/01/06 11:26:28;;;;;;;13.43;3.20;;;5.00;99.90;;;;;;5126392;27;19972;-68
2022/01/06 11:28:56;;;;;;;15.60;3.75;;;5.00;99.90;;;;;;5121995;27;20030;-68
2022/01/06 11:31:24;;;;;;;15.00;3.60;;;5.10;99.90;;;;;;5137821;27;20115;-68
2022/01/06 11:33:52;;;;;;;16.33;3.42;;;5.10;99.90;;;;;;5137607;27;20043;-68
2022/01/06 11:36:31;;;;;;;15.98;3.20;;;5.20;99.90;;;;;;5117079;27;20050;-68
2022/01/06 11:38:59;;;;;;;13.73;3.47;;;5.30;99.90;;;;;;5116615;27;20035;-68
2022/01/06 11:41:32;;;;;;;14.07;2.95;;;5.30;99.90;;;;;;5116915;27;20039;-68
2022/01/06 11:43:58;;;;;;;16.40;3.15;;;5.30;99.90;;;;;;5117535;27;20042;-68
2022/01/06 11:46:25;;;;;;;16.88;3.05;;;5.30;99.90;;;;;;5120060;27;20034;-68
2022/01/06 11:48:58;;;;;;;12.25;3.25;;;5.30;99.90;;;;;;5120359;27;20423;-68
2022/01/06 11:51:30;;;;;;;16.15;3.63;;;5.40;99.90;;;;;;5137809;27;20371;-68
2022/01/06 11:53:57;;;;;;;14.13;2.95;;;5.40;99.90;;;;;;5137049;27;20422;-68
2022/01/06 11:56:24;;;;;;;17.33;3.45;;;5.40;99.90;;;;;;5116658;27;20039;-68
2022/01/06 11:59:08;;;;;;;14.38;3.40;;;5.50;99.90;;;;;;5116588;27;20047;-67
2022/01/06 12:01:50;;;;;;;15.00;3.28;;;5.50;99.90;;;;;;5117253;27;20100;-68
2022/01/06 12:04:18;;;;;;;16.90;3.67;;;5.50;99.90;;;;;;5119042;27;20023;-67
2022/01/06 12:06:45;;;;;;;14.38;2.90;;;5.50;99.90;;;;;;5137015;27;20035;-68
2022/01/06 12:09:16;;;;;;;16.20;3.58;;;5.50;99.90;;;;;;5137357;27;20038;-67
2022/01/06 12:11:42;;;;;;;21.08;3.85;;;5.50;99.90;;;;;;5131084;27;20148;-67
2022/01/06 12:14:08;;;;;;;17.40;3.92;;;5.60;99.90;;;;;;5134893;27;20102;-68
2022/01/06 12:16:36;;;;;;;16.52;3.72;;;5.60;99.90;;;;;;5101854;27;20043;-68
2022/01/06 12:19:23;;;;;;;14.23;3.45;;;5.60;99.90;;;;;;5136533;27;20038;-68
2022/01/06 12:21:49;;;;;;;20.98;5.05;;;5.60;99.90;;;;;;5128450;27;20062;-67
2022/01/06 12:24:15;;;;;;;14.90;3.92;;;5.60;99.90;;;;;;5100723;27;20121;-67
2022/01/06 12:26:42;;;;;;;15.98;3.33;;;5.60;99.90;;;;;;5119745;27;20042;-68
2022/01/06 12:29:20;;;;;;;23.42;3.88;;;5.60;99.90;;;;;;5136746;27;20411;-68
2022/01/06 12:31:47;;;;;;;16.60;3.50;;;5.60;99.90;;;;;;5133022;27;20046;-67
2022/01/06 12:34:14;;;;;;;18.08;3.88;;;5.70;99.90;;;;;;5134865;27;20663;-67
2022/01/06 12:36:43;;;;;;;18.85;3.28;;;5.70;99.90;;;;;;5136751;27;20031;-67
2022/01/06 12:39:16;;;;;;;14.77;3.30;;;5.80;99.90;;;;;;5117500;27;20030;-67
2022/01/06 12:41:42;;;;;;;15.13;3.10;;;5.80;99.90;;;;;;5140801;27;20050;-67
2022/01/06 12:44:10;;;;;;;18.15;3.50;;;5.80;99.90;;;;;;5138314;27;20034;-67
2022/01/06 12:46:38;;;;;;;20.98;3.70;;;5.90;99.90;;;;;;5139762;27;20050;-69
2022/01/06 12:49:08;;;;;;;11.70;2.83;;;5.90;99.90;;;;;;5134545;27;20035;-68
2022/01/06 12:51:36;;;;;;;17.20;2.63;;;5.90;99.90;;;;;;5121556;27;20039;-68
2022/01/06 12:54:08;;;;;;;16.50;2.78;;;5.90;99.90;;;;;;5138608;27;20341;-67